Extreme weather reports worldwide

Highest temperatures

Station
 
Location
 
Name
 
Wind
Knots
Gust
Knots
Vis
SM
Temp/Dew
C
Baro
inHg
METAR
 
HMO MMHO Hermosillo, MX General Ignacio P. Garcia International Airport 10 10 42/8 29.84 MMHO 232140Z 30010KT 10SM SCT040 42/08 A2984 RMK 8/100 DSNT TCU N NE HZY
EED KEED Needles, US Needles Airport 3 10 41/1 29.89 KEED 232156Z AUTO VRB03KT 10SM CLR 41/02 A2989 RMK AO2 SLP085 T04110017
MXL MMML Mexicali, MX General Rodolfo Sánchez Taboada International Airport 5 10 40/-2 29.86 MMML 232144Z 17005KT 10SM SKC 40/M02 A2986
IFP KIFP Bullhead City, US Laughlin Bullhead International Airport 9 10 40/4 29.88 KIFP 232151Z 21009KT 10SM SKC 40/04 A2988
BLH KBLH Blythe, US Blythe Airport 11 10 40/3 29.87 KBLH 232152Z AUTO 18011KT 10SM CLR 41/03 A2987 RMK AO2 SLP106 T04060033

Station
 
Location
 
Name
 
Wind
Knots
Gust
Knots
Vis
SM
Temp/Dew
C
Baro
inHg
METAR
 
PSP KPSP Palm Springs, US Palm Springs International Airport 0 10 40/4 29.89 KPSP 232153Z 00000KT 10SM CLR 41/04 A2989 RMK AO2 SLP115 T04060044
CEN MMCN Ciudad Obregón, MX Ciudad Obregón International Airport 6 10 39/14 29.75 MMCN 232144Z 23006KT 10SM SKC 39/14 A2975 RMK HZY
KCHD Chandler, US Chandler Municipal Airport 9 10 39/4 29.89 KCHD 232147Z 25009KT 10SM CLR 39/04 A2989
GYR KGYR Goodyear, US Phoenix Goodyear Airport 13 10 39/8 29.88 KGYR 232147Z 24013KT 10SM FEW120 39/08 A2988
KGEU Glendale, US Glendale Municipal Airport 8 15 10 39/4 29.89 KGEU 232148Z 22008G15KT 10SM FEW200 39/04 A2989
AZA KIWA Phoenix, US Phoenix-Mesa-Gateway Airport 14 10 39/6 29.90 KIWA 232150Z 26014KT 10SM FEW200 39/06 A2990
PHX KPHX Phoenix, US Phoenix Sky Harbor International Airport 10 16 10 39/5 29.86 KPHX 232151Z 27010G16KT 10SM FEW120 39/06 A2986 RMK AO2 SLP089 T03940056
MSC KFFZ Mesa, US Falcon Field 9 10 39/6 29.88 KFFZ 232154Z AUTO 29009KT 10SM CLR 39/06 A2988 RMK AO2 SLP090 T03940061
YUM KNYL Yuma, US Yuma MCAS/Yuma International Airport 4 7 39/4 29.86 KNYL 232157Z 23004KT 7SM CLR 39/04 A2986 RMK AO2 SLP106 T03940044
LGF KLGF Yuma Proving Ground(Yuma), US Laguna Army Airfield 6 10 39/3 29.87 KLGF 232158Z AUTO 25006KT 10SM CLR 40/03 A2987 RMK AO2 SLP110 T03950033 $
LUF KLUF Glendale, US Luke Air Force Base 7 16 10 39/4 29.85 KLUF 232158Z AUTO 19007G16KT 10SM CLR 39/05 A2985 RMK AO2 SLP093 T03940047 $
BXK KBXK Buckeye, US Buckeye Municipal Airport 7 10 39/5 29.88 KBXK 232215Z AUTO 18007KT 10SM CLR 39/05 A2988 RMK A01
HII KHII Lake Havasu City, US Lake Havasu City Airport 4 10 39/2 29.88 KHII 232215Z AUTO 15004KT 10SM CLR 39/02 A2988 RMK AO2
KL08 4 10 39/0 29.87 KL08 232215Z AUTO 21004KT 10SM CLR 39/M00 A2987 RMK AO2
DVT KDVT Phoenix, US Phoenix Deer Valley Airport 12 16 10 38/6 29.89 KDVT 232153Z 23012G16KT 10SM CLR 38/07 A2989 RMK AO2 SLP094 T03830067
IPL KIPL Imperial, US Imperial County Airport 5 10 38/2 29.84 KIPL 232153Z AUTO 27005KT 10SM CLR 39/02 A2984 RMK AO2 SLP105 T03890022
SCF KSDL Scottsdale, US Scottsdale Airport 9 10 38/6 29.90 KSDL 232153Z 27009KT 10SM CLR 39/07 A2990 RMK AO2 SLP097 T03890067
CGZ KCGZ Casa Grande, US Casa Grande Municipal Airport 12 22 10 38/6 29.91 KCGZ 232156Z AUTO 31012G22KT 10SM CLR 38/07 A2991 RMK AO2 SLP110 T03830067
KGXF 7 10 38/4 29.86 KGXF 232158Z AUTO 29007KT 10SM CLR 39/04 A2986 RMK AO2 SLP098 T03860042
KNOZ 0 10 38/4 29.88 KNOZ 232159Z AUTO 00000KT 10SM CLR 39/04 A2988 RMK AO2 SLP065 T03890044 PWINO
KA39 8 10 38/5 29.93 KA39 232210Z AUTO 26008KT 10SM BKN100 OVC120 38/05 A2993 RMK AO2
KRYN Tucson, US Ryan Field 6 10 37/2 29.99 KRYN 232148Z 34006KT 10SM CLR 37/02 A2999
VGT KVGT Las Vegas, US North Las Vegas Airport 7 10 37/0 29.97 KVGT 232153Z 17007KT 10SM CLR 37/01 A2997 RMK AO2 SLP139 T03720006
GYM MMGM Guaymas, MX General José María Yáñez International Airport 10 10 36/27 29.75 MMGM 232140Z 20010KT 10SM SKC 36/27 A2975 RMK HZY
LAP MMLP La Paz, MX Manuel Márquez de León International Airport 7 10 36/14 29.84 MMLP 232140Z 36007KT 10SM FEW035 36/14 A2984 RMK 8/100
LMM MMLM Los Mochis, MX Valle del Fuerte International Airport 16 10 36/19 29.80 MMLM 232141Z 30016KT 10SM SKC 36/19 A2980 RMK HZY ISOL CU
TUS KTUS Tucson, US Tucson International Airport / Morris Air National Guard Base 6 10 36/0 30.00 KTUS 232153Z 34006KT 10SM CLR 37/M01 A3000 RMK AO2 SLP104 T03671006
LAS KLAS Las Vegas, US McCarran International Airport 7 10 36/0 29.99 KLAS 232156Z 09007KT 10SM FEW250 37/00 A2999 RMK AO2 SLP128 T03670000
KNID China Lake, US China Lake Naws (Armitage Field) Airport 5 4 36/0 30.01 KNID 232156Z COR VRB05KT 4SM FU HZ SCT000 36/M01 A3001 AO2A VIS S 2 FU SCT000 SLPNO T03631008
KNXP Twentynine Palms, US Twentynine Palms (Self) Airport 0 10 36/-2 30.06 KNXP 232156Z AUTO 00000KT 10SM CLR 36/M02 A3006 RMK AO2 SLP138 T03611022
KQHT 3 6 36/-6 29.90 KQHT 232156Z 19003KT 6SM HZ CLR 36/M06 A2990 RMK AO2 SLPNO
LSV KLSV Las Vegas, US Nellis Air Force Base 0 10 36/0 29.96 KLSV 232158Z AUTO 00000KT 10SM CLR 37/00 A2996 RMK AO2 SLP121 T03660000 $
KBVU 0 10 36/0 29.99 KBVU 232215Z AUTO 00000KT 10SM CLR 36/M00 A2999 RMK AO2
MER KMER Merced, US Castle Airport 8 10 35/5 30.01 KMER 232145Z 31008KT 10SM CLR 35/05 A3001
DAG KDAG Daggett, US Barstow Daggett Airport 3 10 35/2 30.00 KDAG 232150Z AUTO VRB03KT 10SM CLR 36/02 A3000 RMK AO2 SLP130 T03560022
LTO MMLT Loreto, MX Loreto International Airport 12 10 35/26 29.80 MMLT 232150Z 09012KT 10SM FEW050 35/26 A2980 RMK 8/200 HZY
ELP KELP El Paso, US El Paso International Airport 10 10 35/1 30.00 KELP 232151Z 31010KT 10SM SCT120 36/01 A3000 RMK AO2 SLP079 CB DSNT N-NE SE AND W-NW T03560011
SAD KSAD Safford, US Safford Regional Airport 13 20 10 35/5 29.97 KSAD 232151Z AUTO 26013G20KT 10SM CLR 36/06 A2997 RMK AO2 SLP087 T03560056
SBD KSBD San Bernardino, US San Bernardino International Airport 6 6 35/5 29.98 KSBD 232151Z 25006KT 6SM HZ SCT150 35/05 A2998
CNO KCNO Chino, US Chino Airport 9 10 35/8 29.97 KCNO 232153Z 25009KT 10SM FU CLR 36/09 A2997 RMK AO2 SLP142 T03560089
MFE KMFE Mc Allen, US Mc Allen Miller International Airport 9 10 35/18 29.83 KMFE 232153Z 34009KT 10SM SCT065 35/18 A2983 RMK AO2 SLP098 T03500183
HSH KHND Las Vegas, US Henderson Executive Airport 7 10 35/2 30.02 KHND 232156Z 02007KT 320V050 10SM CLR 36/03 A3002 RMK AO2 SLP153 T03560028
WJF KWJF Lancaster, US General WM J Fox Airfield 3 10 35/1 30.03 KWJF 232156Z VRB03KT 10SM CLR 35/02 A3003 RMK AO2 SLP146 T03500017
DMA KDMA Tucson, US Davis Monthan Air Force Base 12 17 10 35/3 29.98 KDMA 232158Z AUTO 34012G17KT 10SM CLR 36/03 A2998 RMK AO2 SLP106 T03570030 FZRANO $
KPRS US Presidio Lely International Airport 9 10 35/4 29.94 KPRS 232215Z AUTO 25009KT 10SM CLR 36/04 A2994 RMK AO2 T03560040